Time;durP1;ratioP1;P1;durP2;ratioP2;P2;SDS_P1;SDS_P2;PMS_P1;PMS_P2;Temp;Humidity;BMP_temperature;BMP_pressure;BME280_temperature;BME280_humidity;BME280_pressure;Samples;Min_cycle;Max_cycle;Signal;HPM_P1;HPM_P2
2022/01/18 00:00:24;;;;;;;19.40;6.75;;;;;;;;;;5076557;28;20066;-82
2022/01/18 00:02:49;;;;;;;21.55;6.97;;;;;;;;;;5072718;28;20473;-81
2022/01/18 00:05:15;;;;;;;16.00;6.40;;;;;;;;;;5070850;28;20039;-82
2022/01/18 00:07:42;;;;;;;14.02;5.97;;;;;;;;;;5070349;28;20035;-83
2022/01/18 00:10:08;;;;;;;18.75;6.50;;;;;;;;;;5080751;28;20945;-81
2022/01/18 00:18:10;;;;;;;19.92;6.93;;;;;;;;;;5082053;28;20115;-82
2022/01/18 00:23:11;;;;;;;15.95;6.20;;;;;;;;;;5080389;28;20028;-83
2022/01/18 00:25:40;;;;;;;14.00;6.00;;;;;;;;;;5077026;28;20040;-82
2022/01/18 00:28:06;;;;;;;16.27;6.85;;;;;;;;;;5089957;28;20111;-81
2022/01/18 00:35:40;;;;;;;16.20;6.43;;;;;;;;;;5081577;28;20063;-83
2022/01/18 00:38:15;;;;;;;18.02;6.80;;;;;;;;;;5076099;28;20474;-82
2022/01/18 00:40:41;;;;;;;14.05;6.05;;;;;;;;;;5073569;28;20157;-83
2022/01/18 00:43:06;;;;;;;22.83;7.45;;;;;;;;;;5074089;28;20111;-81
2022/01/18 00:45:32;;;;;;;17.55;6.68;;;;;;;;;;5079839;28;20040;-81
2022/01/18 00:47:57;;;;;;;20.63;6.68;;;;;;;;;;5080166;28;20028;-83
2022/01/18 00:50:26;;;;;;;19.40;6.80;;;;;;;;;;5078035;28;20089;-82
2022/01/18 00:52:53;;;;;;;18.00;6.53;;;;;;;;;;5086187;28;20034;-82
2022/01/18 00:55:18;;;;;;;14.23;6.13;;;;;;;;;;5076444;28;20024;-83
2022/01/18 00:57:43;;;;;;;19.08;6.97;;;;;;;;;;5078756;28;20024;-82
2022/01/18 01:00:09;;;;;;;18.33;6.35;;;;;;;;;;5079592;28;22373;-81
2022/01/18 01:02:35;;;;;;;22.00;6.97;;;;;;;;;;5080699;28;20027;-82
2022/01/18 01:05:00;;;;;;;14.85;6.50;;;;;;;;;;5081355;28;20036;-83
2022/01/18 01:07:26;;;;;;;18.60;6.78;;;;;;;;;;5077869;28;20032;-83
2022/01/18 01:09:52;;;;;;;17.60;6.75;;;;;;;;;;5076631;28;20098;-82
2022/01/18 01:12:19;;;;;;;16.58;6.97;;;;;;;;;;5078687;28;20028;-83
2022/01/18 01:14:46;;;;;;;14.35;6.20;;;;;;;;;;5081045;28;20470;-81
2022/01/18 01:17:38;;;;;;;17.95;6.45;;;;;;;;;;5080053;28;20059;-82
2022/01/18 01:34:19;;;;;;;14.80;6.50;;;;;;;;;;5108323;28;20433;-81
2022/01/18 01:36:59;;;;;;;17.13;7.28;;;;;;;;;;5101136;27;20081;-83
2022/01/18 01:44:59;;;;;;;13.45;6.50;;;;;;;;;;5077387;28;20070;-83
2022/01/18 01:47:34;;;;;;;18.20;6.80;;;;;;;;;;5101630;28;20027;-81
2022/01/18 01:50:00;;;;;;;18.08;7.05;;;;;;;;;;5082399;28;20038;-82
2022/01/18 01:52:26;;;;;;;19.45;7.53;;;;;;;;;;5084810;28;20040;-83
2022/01/18 01:54:53;;;;;;;17.92;7.75;;;;;;;;;;5082943;28;20371;-82
2022/01/18 01:57:19;;;;;;;19.00;7.95;;;;;;;;;;5088212;28;20374;-81
2022/01/18 01:59:44;;;;;;;20.25;7.72;;;;;;;;;;5085988;28;20024;-81
2022/01/18 02:02:10;;;;;;;22.55;7.47;;;;;;;;;;5103240;28;20038;-83
2022/01/18 02:04:35;;;;;;;19.88;6.93;;;;;;;;;;5103718;28;20028;-82
2022/01/18 02:07:00;;;;;;;21.73;8.52;;;;;;;;;;5103730;28;20370;-82
2022/01/18 02:09:26;;;;;;;19.88;7.80;;;;;;;;;;5091877;28;20160;-83
2022/01/18 02:11:55;;;;;;;22.35;7.50;;;;;;;;;;5107537;28;20027;-82
2022/01/18 02:14:22;;;;;;;17.13;7.63;;;;;;;;;;5086541;28;20157;-82
2022/01/18 02:22:16;;;;;;;16.85;8.13;;;;;;;;;;5104016;28;20459;-82
2022/01/18 02:24:41;;;;;;;19.75;8.20;;;;;;;;;;5078096;28;20378;-82
2022/01/18 02:27:07;;;;;;;22.42;9.20;;;;;;;;;;5078168;28;20057;-82
2022/01/18 02:29:32;;;;;;;19.25;8.45;;;;;;;;;;5080117;28;20052;-83
2022/01/18 02:31:59;;;;;;;22.40;8.68;;;;;;;;;;5081946;28;20016;-82
2022/01/18 02:34:25;;;;;;;21.45;9.38;;;;;;;;;;5077480;28;20028;-82
2022/01/18 02:36:54;;;;;;;19.00;9.10;;;;;;;;;;5078777;28;20031;-83
2022/01/18 02:39:22;;;;;;;17.15;9.05;;;;;;;;;;5077941;28;20024;-82
2022/01/18 02:41:59;;;;;;;18.50;8.43;;;;;;;;;;5097207;27;20114;-82
2022/01/18 02:44:25;;;;;;;17.85;8.82;;;;;;;;;;5080455;28;20020;-83
2022/01/18 02:46:51;;;;;;;17.00;8.85;;;;;;;;;;5080500;28;20101;-83
2022/01/18 02:49:17;;;;;;;14.52;8.52;;;;;;;;;;5098900;27;20059;-82
2022/01/18 02:51:42;;;;;;;13.45;8.10;;;;;;;;;;5083152;28;20375;-82
2022/01/18 02:54:11;;;;;;;13.50;8.20;;;;;;;;;;5076264;28;20038;-81
2022/01/18 02:56:51;;;;;;;13.38;8.23;;;;;;;;;;5076845;28;20036;-82
2022/01/18 03:00:18;;;;;;;11.98;7.93;;;;;;;;;;5079108;28;20034;-82
2022/01/18 03:05:06;;;;;;;11.07;7.45;;;;;;;;;;5098220;28;20136;-83
2022/01/18 03:07:31;;;;;;;11.68;7.82;;;;;;;;;;5080180;28;20035;-82
2022/01/18 03:09:57;;;;;;;10.88;7.45;;;;;;;;;;5084442;28;20077;-82
2022/01/18 03:12:22;;;;;;;12.65;8.00;;;;;;;;;;5076564;28;20028;-82
2022/01/18 03:14:47;;;;;;;10.43;7.75;;;;;;;;;;5080497;28;20385;-82
2022/01/18 03:17:13;;;;;;;12.60;7.80;;;;;;;;;;5097993;28;20074;-83
2022/01/18 03:19:38;;;;;;;12.50;8.07;;;;;;;;;;5077818;28;20028;-82
2022/01/18 03:22:04;;;;;;;12.68;7.55;;;;;;;;;;5075472;28;20027;-83
2022/01/18 03:29:39;;;;;;;10.30;7.32;;;;;;;;;;5095413;28;20054;-83
2022/01/18 03:32:06;;;;;;;18.02;8.20;;;;;;;;;;5096648;28;20027;-82
2022/01/18 03:34:31;;;;;;;16.25;7.75;;;;;;;;;;5073868;28;20047;-82
2022/01/18 03:36:57;;;;;;;12.50;7.78;;;;;;;;;;5080673;28;20481;-81
2022/01/18 03:39:22;;;;;;;14.07;8.10;;;;;;;;;;5079317;28;20035;-82
2022/01/18 03:41:54;;;;;;;13.05;8.23;;;;;;;;;;5079211;28;20032;-81
2022/01/18 03:44:22;;;;;;;13.68;8.13;;;;;;;;;;5096477;28;20106;-81
2022/01/18 03:46:48;;;;;;;13.27;8.40;;;;;;;;;;5077747;28;20485;-83
2022/01/18 03:49:13;;;;;;;13.40;8.00;;;;;;;;;;5075951;28;20020;-83
2022/01/18 03:51:39;;;;;;;15.07;9.27;;;;;;;;;;5083629;28;20034;-82
2022/01/18 03:54:04;;;;;;;15.80;8.60;;;;;;;;;;5082900;28;20035;-82
2022/01/18 03:56:30;;;;;;;12.98;7.38;;;;;;;;;;5076435;28;20059;-82
2022/01/18 03:58:58;;;;;;;16.50;8.65;;;;;;;;;;5076894;28;20499;-83
2022/01/18 04:01:23;;;;;;;16.13;8.57;;;;;;;;;;5075902;28;20035;-82
2022/01/18 04:03:48;;;;;;;14.95;8.10;;;;;;;;;;5079199;28;20702;-81
2022/01/18 04:06:14;;;;;;;14.43;8.07;;;;;;;;;;5095329;28;20024;-82
2022/01/18 04:08:39;;;;;;;16.25;9.02;;;;;;;;;;5099687;28;20480;-82
2022/01/18 04:11:05;;;;;;;16.42;8.57;;;;;;;;;;5078913;28;20167;-82
2022/01/18 04:13:30;;;;;;;17.10;7.97;;;;;;;;;;5076393;28;20122;-82
2022/01/18 04:15:55;;;;;;;14.65;8.40;;;;;;;;;;5076317;28;20459;-82
2022/01/18 04:29:00;;;;;;;15.18;8.32;;;;;;;;;;5096498;28;20028;-82
2022/01/18 04:31:27;;;;;;;15.82;8.13;;;;;;;;;;5075710;28;20109;-82
2022/01/18 04:33:53;;;;;;;12.68;7.55;;;;;;;;;;5076423;28;20070;-82
2022/01/18 04:36:20;;;;;;;12.18;7.10;;;;;;;;;;5095589;28;20035;-83
2022/01/18 04:38:45;;;;;;;14.45;6.88;;;;;;;;;;5096195;28;20035;-81
2022/01/18 04:41:14;;;;;;;11.75;6.82;;;;;;;;;;5090131;28;20032;-83
2022/01/18 04:48:50;;;;;;;12.82;6.90;;;;;;;;;;5103448;28;20100;-83
2022/01/18 04:51:16;;;;;;;14.63;6.82;;;;;;;;;;5073866;28;20031;-82
2022/01/18 04:53:52;;;;;;;12.43;6.80;;;;;;;;;;5076901;28;20024;-83
2022/01/18 04:56:27;;;;;;;13.73;7.07;;;;;;;;;;5074342;28;20039;-81
2022/01/18 04:58:52;;;;;;;11.88;6.55;;;;;;;;;;5084011;28;20101;-82
2022/01/18 05:01:18;;;;;;;12.73;6.13;;;;;;;;;;5083747;28;20020;-83
2022/01/18 05:03:43;;;;;;;14.02;7.15;;;;;;;;;;5100699;28;20040;-82
2022/01/18 05:06:12;;;;;;;14.43;6.97;;;;;;;;;;5084380;28;20061;-83
2022/01/18 05:08:38;;;;;;;14.93;7.07;;;;;;;;;;5102122;28;20114;-81
2022/01/18 05:11:05;;;;;;;15.40;7.07;;;;;;;;;;5083046;28;20420;-83
2022/01/18 05:21:30;;;;;;;16.23;6.80;;;;;;;;;;5098117;28;20020;-82
2022/01/18 05:23:56;;;;;;;14.10;6.25;;;;;;;;;;5082401;28;20023;-82
2022/01/18 05:26:22;;;;;;;14.65;6.50;;;;;;;;;;5084486;28;20031;-82
2022/01/18 05:28:48;;;;;;;13.70;6.32;;;;;;;;;;5101811;28;20440;-81
2022/01/18 05:31:13;;;;;;;13.23;6.55;;;;;;;;;;5080532;28;20024;-82
2022/01/18 05:33:41;;;;;;;13.55;7.13;;;;;;;;;;5085683;28;20056;-82
2022/01/18 05:36:07;;;;;;;13.80;6.65;;;;;;;;;;5085239;28;20122;-82
2022/01/18 05:38:33;;;;;;;13.13;6.55;;;;;;;;;;5087968;28;20035;-82
2022/01/18 05:40:59;;;;;;;13.23;6.47;;;;;;;;;;5086371;28;20020;-82
2022/01/18 05:43:25;;;;;;;12.13;6.00;;;;;;;;;;5086191;28;20478;-81
2022/01/18 05:45:52;;;;;;;13.07;6.32;;;;;;;;;;5081217;28;20027;-82
2022/01/18 05:48:17;;;;;;;15.05;6.47;;;;;;;;;;5086407;28;20047;-81
2022/01/18 05:50:43;;;;;;;13.80;7.03;;;;;;;;;;5107036;28;20016;-83
2022/01/18 05:53:08;;;;;;;12.65;6.63;;;;;;;;;;5093439;28;20131;-82
2022/01/18 05:55:33;;;;;;;15.20;6.65;;;;;;;;;;5087784;28;20513;-82
2022/01/18 05:57:59;;;;;;;13.25;6.55;;;;;;;;;;5082421;28;20406;-82
2022/01/18 06:00:26;;;;;;;14.13;6.63;;;;;;;;;;5091404;28;20093;-82
2022/01/18 06:03:03;;;;;;;14.77;7.53;;;;;;;;;;5097642;28;20081;-82
2022/01/18 06:08:13;;;;;;;15.80;8.13;;;;;;;;;;5102105;27;20072;-81
2022/01/18 06:10:39;;;;;;;16.10;7.55;;;;;;;;;;5079817;28;20440;-81
2022/01/18 06:13:07;;;;;;;14.93;7.28;;;;;;;;;;5086607;28;20034;-82
2022/01/18 06:15:34;;;;;;;13.02;7.00;;;;;;;;;;5085766;28;20106;-82
2022/01/18 06:17:59;;;;;;;13.18;7.18;;;;;;;;;;5082368;28;20110;-81
2022/01/18 06:20:25;;;;;;;12.35;6.63;;;;;;;;;;5082714;28;20197;-82
2022/01/18 06:22:51;;;;;;;17.38;7.28;;;;;;;;;;5090587;28;20023;-82
2022/01/18 06:25:18;;;;;;;11.65;6.18;;;;;;;;;;5090052;28;20031;-82
2022/01/18 06:27:44;;;;;;;13.73;6.63;;;;;;;;;;5080462;28;20062;-82
2022/01/18 06:30:10;;;;;;;13.80;6.15;;;;;;;;;;5082846;28;20432;-83
2022/01/18 06:32:40;;;;;;;12.75;5.90;;;;;;;;;;5083344;28;20394;-82
2022/01/18 06:35:07;;;;;;;11.98;5.82;;;;;;;;;;5083876;28;20288;-81
2022/01/18 06:37:33;;;;;;;17.15;6.78;;;;;;;;;;5082873;28;20115;-82
2022/01/18 06:40:00;;;;;;;13.85;6.55;;;;;;;;;;5105965;28;20459;-82
2022/01/18 06:42:32;;;;;;;15.82;7.03;;;;;;;;;;5081146;28;20076;-82
2022/01/18 06:44:57;;;;;;;14.98;7.45;;;;;;;;;;5086884;28;20074;-82
2022/01/18 06:47:23;;;;;;;17.40;7.65;;;;;;;;;;5085669;28;20102;-82
2022/01/18 06:49:48;;;;;;;17.10;8.13;;;;;;;;;;5084018;28;20030;-82
2022/01/18 06:52:14;;;;;;;16.45;8.13;;;;;;;;;;5087513;28;20039;-82
2022/01/18 06:54:40;;;;;;;15.60;7.47;;;;;;;;;;5084305;28;20112;-82
2022/01/18 06:57:05;;;;;;;13.90;7.05;;;;;;;;;;5086172;28;20024;-83
2022/01/18 06:59:31;;;;;;;14.82;6.78;;;;;;;;;;5080273;28;20093;-82
2022/01/18 07:01:56;;;;;;;13.60;6.20;;;;;;;;;;5082471;28;20058;-82
2022/01/18 07:04:22;;;;;;;13.60;6.20;;;;;;;;;;5099531;28;21735;-83
2022/01/18 07:06:47;;;;;;;13.20;5.68;;;;;;;;;;5090229;28;20026;-83
2022/01/18 07:09:15;;;;;;;13.70;5.88;;;;;;;;;;5101609;28;20047;-82
2022/01/18 07:11:41;;;;;;;11.52;5.47;;;;;;;;;;5080487;28;20027;-83
2022/01/18 07:14:06;;;;;;;13.98;5.45;;;;;;;;;;5084413;28;20028;-82
2022/01/18 07:16:32;;;;;;;11.18;5.10;;;;;;;;;;5088089;28;20415;-82
2022/01/18 07:18:57;;;;;;;11.98;5.22;;;;;;;;;;5099701;28;20114;-82
2022/01/18 07:21:22;;;;;;;10.90;4.63;;;;;;;;;;5082322;27;20105;-81
2022/01/18 07:23:50;;;;;;;12.63;4.97;;;;;;;;;;5077379;28;20076;-83
2022/01/18 07:26:15;;;;;;;10.07;4.50;;;;;;;;;;5074949;28;20070;-83
2022/01/18 07:28:41;;;;;;;9.52;4.20;;;;;;;;;;5076053;28;20119;-82
2022/01/18 07:31:07;;;;;;;9.80;4.25;;;;;;;;;;5078379;28;21281;-83
2022/01/18 07:33:36;;;;;;;9.10;4.47;;;;;;;;;;5098536;28;20023;-83
2022/01/18 07:36:01;;;;;;;9.30;4.65;;;;;;;;;;5081768;28;20047;-82
2022/01/18 07:38:27;;;;;;;8.25;3.95;;;;;;;;;;5079292;28;20081;-82
2022/01/18 07:40:53;;;;;;;8.80;4.40;;;;;;;;;;5075969;28;20027;-83
2022/01/18 07:43:20;;;;;;;9.52;4.57;;;;;;;;;;5071848;28;20028;-83
2022/01/18 07:45:47;;;;;;;10.90;4.70;;;;;;;;;;5075051;28;20035;-83
2022/01/18 07:48:12;;;;;;;10.70;5.18;;;;;;;;;;5075562;28;20042;-83
2022/01/18 07:50:40;;;;;;;10.20;4.85;;;;;;;;;;5096152;28;20031;-82
2022/01/18 07:53:05;;;;;;;9.55;5.15;;;;;;;;;;5068524;28;20172;-83
2022/01/18 07:55:31;;;;;;;8.80;4.50;;;;;;;;;;5071382;28;20576;-82
2022/01/18 07:57:59;;;;;;;9.55;4.93;;;;;;;;;;5099913;28;20031;-83
2022/01/18 08:00:24;;;;;;;9.25;4.80;;;;;;;;;;5099870;28;20436;-82
2022/01/18 08:02:50;;;;;;;9.20;4.85;;;;;;;;;;5078535;28;20036;-81
2022/01/18 08:05:15;;;;;;;11.10;5.68;;;;;;;;;;5080299;28;20035;-83
2022/01/18 08:07:41;;;;;;;9.43;4.63;;;;;;;;;;5080525;28;20092;-83
2022/01/18 08:10:08;;;;;;;8.63;4.28;;;;;;;;;;5078157;28;20131;-82
2022/01/18 08:12:33;;;;;;;10.40;4.82;;;;;;;;;;5071926;28;20035;-83
2022/01/18 08:15:12;;;;;;;9.10;4.45;;;;;;;;;;5078749;28;20027;-83
2022/01/18 08:17:38;;;;;;;9.23;4.20;;;;;;;;;;5074372;28;20493;-83
2022/01/18 08:20:03;;;;;;;9.30;4.60;;;;;;;;;;5072680;28;20027;-83
2022/01/18 08:22:28;;;;;;;9.25;4.30;;;;;;;;;;5094754;28;20465;-83
2022/01/18 08:24:54;;;;;;;7.93;3.95;;;;;;;;;;5077292;28;20023;-82
2022/01/18 08:27:21;;;;;;;7.70;4.10;;;;;;;;;;5084534;28;20016;-83
2022/01/18 08:29:46;;;;;;;7.85;4.20;;;;;;;;;;5085124;28;20047;-82
2022/01/18 08:32:12;;;;;;;7.43;3.95;;;;;;;;;;5082762;28;20535;-82
2022/01/18 08:34:37;;;;;;;7.40;3.78;;;;;;;;;;5081150;28;20047;-83
2022/01/18 08:37:03;;;;;;;7.32;3.47;;;;;;;;;;5102587;28;20478;-83
2022/01/18 08:39:28;;;;;;;6.57;3.28;;;;;;;;;;5076960;28;20469;-83
2022/01/18 08:41:54;;;;;;;7.18;3.70;;;;;;;;;;5084520;28;20485;-82
2022/01/18 08:44:19;;;;;;;6.95;3.47;;;;;;;;;;5082781;28;20016;-83
2022/01/18 08:46:45;;;;;;;7.07;3.67;;;;;;;;;;5082973;28;20026;-83
2022/01/18 08:49:10;;;;;;;6.78;3.33;;;;;;;;;;5077490;28;20115;-83
2022/01/18 08:51:35;;;;;;;6.18;3.58;;;;;;;;;;5091081;28;20119;-83
2022/01/18 08:54:03;;;;;;;7.13;3.65;;;;;;;;;;5074854;28;20023;-83
2022/01/18 08:56:29;;;;;;;7.35;3.35;;;;;;;;;;5076855;28;20035;-83
2022/01/18 08:58:55;;;;;;;6.72;3.60;;;;;;;;;;5084307;28;20027;-83
2022/01/18 09:01:21;;;;;;;6.45;3.63;;;;;;;;;;5079737;28;20043;-82
2022/01/18 09:03:46;;;;;;;6.28;3.35;;;;;;;;;;5083037;28;20051;-82
2022/01/18 09:06:14;;;;;;;6.63;3.60;;;;;;;;;;5099100;28;20126;-83
2022/01/18 09:08:41;;;;;;;7.80;3.45;;;;;;;;;;5077964;28;20032;-83
2022/01/18 09:11:07;;;;;;;8.38;3.08;;;;;;;;;;5075133;28;20032;-83
2022/01/18 09:13:36;;;;;;;12.77;3.40;;;;;;;;;;5077379;28;20048;-83
2022/01/18 09:16:02;;;;;;;6.85;3.55;;;;;;;;;;5098142;28;20027;-83
2022/01/18 09:18:28;;;;;;;8.93;3.03;;;;;;;;;;5084163;28;20037;-81
2022/01/18 09:20:53;;;;;;;6.50;3.30;;;;;;;;;;5081754;28;20027;-83
2022/01/18 09:23:19;;;;;;;7.43;3.78;;;;;;;;;;5079715;28;20104;-82
2022/01/18 09:25:44;;;;;;;6.47;3.50;;;;;;;;;;5081834;28;20028;-83
2022/01/18 09:28:10;;;;;;;13.05;3.85;;;;;;;;;;5077452;28;20552;-83
2022/01/18 09:30:37;;;;;;;6.65;3.47;;;;;;;;;;5100583;28;20044;-83
2022/01/18 09:33:05;;;;;;;8.20;4.05;;;;;;;;;;5081541;28;20044;-83
2022/01/18 09:35:32;;;;;;;8.23;4.30;;;;;;;;;;5077714;28;20080;-83
2022/01/18 09:37:57;;;;;;;9.40;3.58;;;;;;;;;;5074436;28;20047;-82
2022/01/18 09:40:23;;;;;;;7.47;3.47;;;;;;;;;;5081420;28;20031;-83
2022/01/18 09:42:56;;;;;;;8.70;4.28;;;;;;;;;;5097579;28;20040;-83
2022/01/18 09:45:23;;;;;;;9.02;3.78;;;;;;;;;;5077442;28;20389;-83
2022/01/18 09:47:51;;;;;;;8.48;4.10;;;;;;;;;;5075467;28;20043;-82
2022/01/18 09:50:23;;;;;;;8.77;3.75;;;;;;;;;;5077432;28;20603;-82
2022/01/18 09:52:53;;;;;;;8.35;4.35;;;;;;;;;;5077833;28;20055;-83
2022/01/18 09:55:20;;;;;;;10.75;4.72;;;;;;;;;;5081924;28;20042;-84
2022/01/18 09:57:46;;;;;;;10.65;4.35;;;;;;;;;;5079879;28;21579;-83
2022/01/18 10:00:12;;;;;;;9.80;4.10;;;;;;;;;;5080381;28;20020;-83
2022/01/18 10:02:38;;;;;;;10.90;4.45;;;;;;;;;;5079728;28;20023;-83
2022/01/18 10:05:26;;;;;;;11.68;4.60;;;;;;;;;;5096038;28;20032;-83
2022/01/18 10:08:07;;;;;;;10.55;5.00;;;;;;;;;;5077900;28;20062;-82
2022/01/18 10:10:35;;;;;;;10.32;5.05;;;;;;;;;;5098713;28;20836;-83
2022/01/18 10:13:01;;;;;;;11.50;5.10;;;;;;;;;;5076266;28;20071;-83
2022/01/18 10:15:26;;;;;;;10.95;4.75;;;;;;;;;;5085181;28;20153;-83
2022/01/18 10:18:03;;;;;;;12.30;5.38;;;;;;;;;;5077804;28;20531;-83
2022/01/18 10:20:28;;;;;;;13.25;5.60;;;;;;;;;;5081441;28;20030;-83
2022/01/18 10:22:54;;;;;;;14.10;6.22;;;;;;;;;;5096301;28;20023;-83
2022/01/18 10:25:28;;;;;;;13.95;5.82;;;;;;;;;;5099876;27;20500;-83
2022/01/18 10:27:54;;;;;;;16.83;6.30;;;;;;;;;;5076263;28;20031;-82
2022/01/18 10:30:32;;;;;;;13.68;5.85;;;;;;;;;;5097968;28;20047;-83
2022/01/18 10:33:19;;;;;;;12.05;5.38;;;;;;;;;;5081186;28;20028;-83
2022/01/18 10:36:11;;;;;;;17.70;6.68;;;;;;;;;;5083293;28;20492;-82
2022/01/18 10:38:45;;;;;;;16.33;6.57;;;;;;;;;;5077430;28;20031;-82
2022/01/18 10:41:33;;;;;;;24.15;7.85;;;;;;;;;;5098840;28;20036;-82
2022/01/18 10:44:10;;;;;;;20.70;7.50;;;;;;;;;;5077245;28;20039;-82
2022/01/18 10:46:48;;;;;;;16.98;6.80;;;;;;;;;;5082459;28;20035;-82
2022/01/18 10:49:37;;;;;;;20.30;7.70;;;;;;;;;;5085474;28;20443;-83
2022/01/18 10:52:09;;;;;;;17.15;7.15;;;;;;;;;;5079747;28;20032;-83
2022/01/18 10:54:45;;;;;;;18.63;7.78;;;;;;;;;;5083434;28;20168;-83
2022/01/18 10:57:16;;;;;;;24.45;8.32;;;;;;;;;;5072656;28;20501;-82
2022/01/18 10:59:42;;;;;;;21.45;8.20;;;;;;;;;;5076036;28;20028;-82
2022/01/18 11:02:10;;;;;;;23.20;8.95;;;;;;;;;;5082570;28;20455;-82
2022/01/18 11:04:36;;;;;;;24.25;8.75;;;;;;;;;;5081491;28;20486;-82
2022/01/18 11:07:03;;;;;;;23.13;8.57;;;;;;;;;;5078581;28;20027;-83
2022/01/18 11:09:30;;;;;;;21.77;8.38;;;;;;;;;;5075300;28;20115;-83
2022/01/18 11:11:56;;;;;;;21.95;8.02;;;;;;;;;;5077831;28;20129;-82
2022/01/18 11:14:23;;;;;;;20.25;8.25;;;;;;;;;;5067935;28;20039;-83
2022/01/18 11:16:51;;;;;;;24.45;8.38;;;;;;;;;;5077546;28;20046;-82
2022/01/18 11:19:31;;;;;;;20.33;8.82;;;;;;;;;;5078730;28;20039;-83
2022/01/18 11:22:08;;;;;;;21.15;8.27;;;;;;;;;;5079230;28;20036;-82
2022/01/18 11:24:36;;;;;;;23.42;8.93;;;;;;;;;;5077668;28;20023;-83
2022/01/18 11:27:06;;;;;;;25.65;8.80;;;;;;;;;;5100148;28;20031;-83
2022/01/18 11:29:32;;;;;;;19.42;8.20;;;;;;;;;;5082061;28;20047;-83
2022/01/18 11:31:58;;;;;;;20.58;8.75;;;;;;;;;;5071073;28;20402;-83
2022/01/18 11:34:42;;;;;;;23.05;8.32;;;;;;;;;;5078178;28;20031;-83
2022/01/18 11:37:29;;;;;;;20.63;8.18;;;;;;;;;;5073080;28;20032;-83
2022/01/18 11:40:07;;;;;;;24.13;8.75;;;;;;;;;;5081075;28;20024;-81
2022/01/18 11:42:49;;;;;;;20.98;8.63;;;;;;;;;;5074929;28;20028;-82
2022/01/18 11:45:42;;;;;;;22.50;8.52;;;;;;;;;;5076963;28;20501;-81
2022/01/18 11:48:19;;;;;;;20.85;7.10;;;;;;;;;;5076314;28;20042;-82
2022/01/18 11:50:59;;;;;;;15.80;4.57;;;;;;;;;;5080189;28;20118;-83
2022/01/18 11:56:42;;;;;;;20.83;4.03;;;;;;;;;;5097004;28;20035;-83
2022/01/18 11:59:22;;;;;;;12.93;3.28;;;;;;;;;;5067182;28;20478;-81
2022/01/18 12:01:54;;;;;;;15.95;3.95;;;;;;;;;;5081063;28;20908;-83
2022/01/18 12:04:55;;;;;;;23.63;5.15;;;;;;;;;;5078150;28;20020;-83
2022/01/18 12:07:33;;;;;;;18.52;5.05;;;;;;;;;;5035035;28;20047;-82
2022/01/18 12:09:59;;;;;;;18.23;5.15;;;;;;;;;;5096440;28;20563;-82
2022/01/18 12:12:39;;;;;;;20.23;6.22;;;;;;;;;;5078895;28;20111;-82
2022/01/18 12:15:26;;;;;;;25.35;6.80;;;;;;;;;;5075823;28;20070;-81
2022/01/18 12:17:57;;;;;;;21.35;7.07;;;;;;;;;;5077940;28;20031;-82
2022/01/18 12:20:35;;;;;;;23.67;7.93;;;;;;;;;;5079772;28;20485;-82
2022/01/18 12:23:09;;;;;;;22.02;7.43;;;;;;;;;;5078408;28;20027;-83
2022/01/18 12:26:01;;;;;;;19.60;6.95;;;;;;;;;;5095335;27;20023;-84
2022/01/18 12:34:26;;;;;;;24.92;7.30;;;;;;;;;;5058973;28;20849;-82
2022/01/18 12:36:54;;;;;;;24.95;7.30;;;;;;;;;;5077901;28;20088;-84
2022/01/18 12:39:20;;;;;;;21.15;7.38;;;;;;;;;;5079632;28;20032;-83
2022/01/18 12:41:52;;;;;;;28.73;7.63;;;;;;;;;;5079957;28;20045;-82
2022/01/18 12:44:20;;;;;;;24.33;7.05;;;;;;;;;;5099604;28;20024;-83
2022/01/18 12:47:04;;;;;;;27.13;6.82;;;;;;;;;;5078918;28;20549;-83
2022/01/18 12:49:32;;;;;;;25.63;6.97;;;;;;;;;;5079759;28;20027;-83
2022/01/18 12:51:59;;;;;;;25.90;7.32;;;;;;;;;;5077627;28;20147;-83
2022/01/18 12:54:38;;;;;;;27.52;7.70;;;;;;;;;;5095152;28;20031;-83
2022/01/18 12:57:13;;;;;;;26.30;7.10;;;;;;;;;;5071100;28;20114;-83
2022/01/18 13:00:00;;;;;;;21.83;6.97;;;;;;;;;;5085430;28;20059;-84
2022/01/18 13:02:27;;;;;;;21.77;6.57;;;;;;;;;;5094359;28;20039;-83
2022/01/18 13:05:06;;;;;;;21.45;6.40;;;;;;;;;;5075278;28;21922;-83
2022/01/18 13:07:31;;;;;;;20.20;6.10;;;;;;;;;;5081713;28;20449;-84
2022/01/18 13:10:08;;;;;;;21.70;5.75;;;;;;;;;;5079041;28;20034;-83
2022/01/18 13:12:39;;;;;;;23.85;6.38;;;;;;;;;;5072679;28;20374;-83
2022/01/18 13:15:07;;;;;;;24.88;6.00;;;;;;;;;;5073967;28;20472;-83
2022/01/18 13:23:30;;;;;;;24.88;5.30;;;;;;;;;;5093341;28;20405;-83
2022/01/18 13:26:00;;;;;;;22.38;4.95;;;;;;;;;;5073212;28;20089;-83
2022/01/18 13:28:36;;;;;;;21.35;6.30;;;;;;;;;;5075103;28;20038;-83
2022/01/18 13:31:19;;;;;;;20.13;5.05;;;;;;;;;;5082095;28;20485;-83
2022/01/18 13:33:55;;;;;;;21.67;5.22;;;;;;;;;;5077826;28;20606;-83
2022/01/18 13:36:21;;;;;;;21.27;4.80;;;;;;;;;;5081797;28;20028;-83
2022/01/18 13:38:47;;;;;;;23.08;5.00;;;;;;;;;;5102072;28;20482;-83
2022/01/18 13:41:12;;;;;;;22.48;5.03;;;;;;;;;;5081075;28;20111;-83
2022/01/18 13:43:38;;;;;;;18.17;5.28;;;;;;;;;;5080542;28;20120;-84
2022/01/18 13:46:03;;;;;;;28.38;5.10;;;;;;;;;;5084551;28;20039;-84
2022/01/18 13:48:33;;;;;;;17.08;5.30;;;;;;;;;;5102676;28;20043;-83
2022/01/18 13:51:08;;;;;;;21.38;5.90;;;;;;;;;;5081237;28;20030;-83
2022/01/18 13:53:35;;;;;;;29.10;6.55;;;;;;;;;;5081300;28;20027;-84
2022/01/18 13:56:19;;;;;;;21.77;5.97;;;;;;;;;;5084131;28;20032;-83
2022/01/18 13:58:51;;;;;;;23.13;7.00;;;;;;;;;;5083882;28;20027;-83
2022/01/18 14:01:24;;;;;;;27.77;6.75;;;;;;;;;;5078915;28;20039;-83
2022/01/18 14:03:58;;;;;;;22.45;6.13;;;;;;;;;;5081441;28;20520;-83
2022/01/18 14:06:35;;;;;;;25.20;6.35;;;;;;;;;;5078521;28;20057;-83
2022/01/18 14:09:00;;;;;;;21.33;5.63;;;;;;;;;;5081795;28;20463;-83
2022/01/18 14:11:32;;;;;;;21.30;5.63;;;;;;;;;;5074237;28;20146;-83
2022/01/18 14:13:59;;;;;;;20.55;5.65;;;;;;;;;;5080138;28;20036;-83
2022/01/18 14:16:28;;;;;;;23.73;5.93;;;;;;;;;;5085109;28;20028;-83
2022/01/18 14:18:55;;;;;;;22.83;6.38;;;;;;;;;;5077845;28;20069;-83
2022/01/18 14:21:37;;;;;;;23.45;6.07;;;;;;;;;;5097736;28;20020;-83
2022/01/18 14:24:16;;;;;;;18.70;5.80;;;;;;;;;;5079950;28;20020;-83
2022/01/18 14:26:51;;;;;;;17.98;6.38;;;;;;;;;;5080324;28;20036;-82
2022/01/18 14:29:18;;;;;;;25.58;6.72;;;;;;;;;;5079392;28;20053;-83
2022/01/18 14:32:06;;;;;;;21.30;6.10;;;;;;;;;;5078109;28;20038;-82
2022/01/18 14:34:31;;;;;;;20.73;6.13;;;;;;;;;;5079142;28;20032;-83
2022/01/18 14:36:57;;;;;;;19.83;6.10;;;;;;;;;;5095942;27;20035;-83
2022/01/18 14:39:22;;;;;;;22.13;6.25;;;;;;;;;;5080503;28;20042;-83
2022/01/18 14:41:50;;;;;;;22.60;7.00;;;;;;;;;;5080027;28;20032;-83
2022/01/18 14:44:25;;;;;;;21.95;6.72;;;;;;;;;;5071072;28;20035;-82
2022/01/18 14:47:23;;;;;;;26.45;7.93;;;;;;;;;;5083629;28;20494;-84
2022/01/18 14:49:41;;;;;;;23.88;8.05;;;;;;;;;;5103793;27;20585;-83
2022/01/18 14:52:06;;;;;;;25.85;7.93;;;;;;;;;;5071868;28;20076;-83
2022/01/18 14:54:32;;;;;;;22.25;7.50;;;;;;;;;;5076238;28;20027;-82
2022/01/18 14:56:57;;;;;;;22.73;6.90;;;;;;;;;;5092363;28;20031;-83
2022/01/18 14:59:40;;;;;;;;;;;;;;;;;;;;;
2022/01/18 15:02:07;;;;;;;28.77;8.25;;;;;;;;;;5094501;28;20041;-82
2022/01/18 15:04:32;;;;;;;23.23;7.60;;;;;;;;;;5081834;28;20039;-82
2022/01/18 15:06:58;;;;;;;22.67;8.32;;;;;;;;;;5083820;28;20039;-83
2022/01/18 15:09:28;;;;;;;24.23;8.10;;;;;;;;;;5083513;28;20139;-82
2022/01/18 15:11:58;;;;;;;25.73;7.90;;;;;;;;;;5082575;28;20451;-82
2022/01/18 15:14:23;;;;;;;28.75;8.40;;;;;;;;;;5102249;28;20023;-82
2022/01/18 15:16:49;;;;;;;23.33;7.80;;;;;;;;;;5086141;28;20643;-82
2022/01/18 15:19:23;;;;;;;24.50;8.32;;;;;;;;;;5080692;28;20059;-83
2022/01/18 15:21:49;;;;;;;23.92;8.52;;;;;;;;;;5086397;28;20031;-83
2022/01/18 15:24:18;;;;;;;19.90;7.18;;;;;;;;;;5066241;28;20477;-83
2022/01/18 15:26:49;;;;;;;25.77;8.50;;;;;;;;;;5088754;28;20029;-83
2022/01/18 15:29:15;;;;;;;26.92;9.98;;;;;;;;;;5080388;28;20492;-83
2022/01/18 15:31:44;;;;;;;21.80;8.50;;;;;;;;;;5088386;28;20118;-82
2022/01/18 15:34:12;;;;;;;13.05;6.90;;;;;;;;;;5105461;28;20335;-82
2022/01/18 15:37:02;;;;;;;23.35;8.77;;;;;;;;;;5090155;28;20031;-83
2022/01/18 15:39:26;;;;;;;20.77;8.65;;;;;;;;;;5104478;28;20040;-83
2022/01/18 15:41:56;;;;;;;28.88;9.80;;;;;;;;;;5083893;28;20032;-83
2022/01/18 15:44:29;;;;;;;20.27;8.77;;;;;;;;;;5070915;28;20482;-83
2022/01/18 15:46:54;;;;;;;17.17;8.50;;;;;;;;;;5100408;28;20027;-82
2022/01/18 15:49:23;;;;;;;16.58;7.85;;;;;;;;;;5077364;28;20028;-83
2022/01/18 15:52:00;;;;;;;17.63;8.00;;;;;;;;;;5078629;28;20092;-84
2022/01/18 15:54:35;;;;;;;21.10;8.68;;;;;;;;;;5083105;28;20180;-83
2022/01/18 15:57:02;;;;;;;19.50;8.25;;;;;;;;;;5071426;28;20048;-82
2022/01/18 15:59:33;;;;;;;18.25;8.65;;;;;;;;;;5080641;28;20027;-82
2022/01/18 16:02:01;;;;;;;19.35;8.30;;;;;;;;;;5079508;28;20405;-83
2022/01/18 16:04:31;;;;;;;20.10;8.25;;;;;;;;;;5099854;28;20062;-83
2022/01/18 16:07:08;;;;;;;21.50;10.30;;;;;;;;;;5084356;28;20038;-82
2022/01/18 16:09:34;;;;;;;25.10;9.60;;;;;;;;;;5083064;28;20062;-83
2022/01/18 16:12:03;;;;;;;19.77;9.00;;;;;;;;;;5084669;28;20051;-82